sensor_id;sensor_type;location;lat;lon;timestamp;P1;durP1;ratioP1;P2;durP2;ratioP2
15841;SDS011;8021;48.022;11.812;2024-03-08T00:00:09;0.70;;;0.70;;
15841;SDS011;8021;48.022;11.812;2024-03-08T00:02:39;0.90;;;0.90;;
15841;SDS011;8021;48.022;11.812;2024-03-08T00:05:08;0.97;;;0.97;;
15841;SDS011;8021;48.022;11.812;2024-03-08T00:07:36;0.60;;;0.60;;
15841;SDS011;8021;48.022;11.812;2024-03-08T00:10:03;0.80;;;0.80;;
15841;SDS011;8021;48.022;11.812;2024-03-08T00:12:31;0.77;;;0.77;;
15841;SDS011;8021;48.022;11.812;2024-03-08T00:15:00;0.93;;;0.93;;
15841;SDS011;8021;48.022;11.812;2024-03-08T00:17:29;0.97;;;0.97;;
15841;SDS011;8021;48.022;11.812;2024-03-08T00:19:57;0.80;;;0.80;;
15841;SDS011;8021;48.022;11.812;2024-03-08T00:22:25;0.80;;;0.80;;
15841;SDS011;8021;48.022;11.812;2024-03-08T00:24:54;0.70;;;0.70;;
15841;SDS011;8021;48.022;11.812;2024-03-08T00:27:22;0.80;;;0.80;;
15841;SDS011;8021;48.022;11.812;2024-03-08T00:29:50;0.70;;;0.70;;
15841;SDS011;8021;48.022;11.812;2024-03-08T00:32:19;0.70;;;0.70;;
15841;SDS011;8021;48.022;11.812;2024-03-08T00:34:47;0.87;;;0.87;;
15841;SDS011;8021;48.022;11.812;2024-03-08T00:37:15;0.80;;;0.80;;
15841;SDS011;8021;48.022;11.812;2024-03-08T00:39:42;0.80;;;0.80;;
15841;SDS011;8021;48.022;11.812;2024-03-08T00:42:10;0.80;;;0.80;;
15841;SDS011;8021;48.022;11.812;2024-03-08T00:44:38;1.00;;;1.00;;
15841;SDS011;8021;48.022;11.812;2024-03-08T00:47:06;0.90;;;0.90;;
15841;SDS011;8021;48.022;11.812;2024-03-08T00:49:35;0.97;;;0.97;;
15841;SDS011;8021;48.022;11.812;2024-03-08T00:52:04;0.90;;;0.90;;
15841;SDS011;8021;48.022;11.812;2024-03-08T00:54:34;0.80;;;0.80;;
15841;SDS011;8021;48.022;11.812;2024-03-08T00:57:04;0.80;;;0.80;;
15841;SDS011;8021;48.022;11.812;2024-03-08T00:59:33;0.80;;;0.80;;
15841;SDS011;8021;48.022;11.812;2024-03-08T01:02:01;0.80;;;0.80;;
15841;SDS011;8021;48.022;11.812;2024-03-08T01:04:29;0.83;;;0.83;;
15841;SDS011;8021;48.022;11.812;2024-03-08T01:06:58;0.90;;;0.90;;
15841;SDS011;8021;48.022;11.812;2024-03-08T01:09:26;1.10;;;1.10;;
15841;SDS011;8021;48.022;11.812;2024-03-08T01:11:54;0.80;;;0.80;;
15841;SDS011;8021;48.022;11.812;2024-03-08T01:14:22;0.90;;;0.90;;
15841;SDS011;8021;48.022;11.812;2024-03-08T01:16:50;0.70;;;0.70;;
15841;SDS011;8021;48.022;11.812;2024-03-08T01:19:18;0.70;;;0.70;;
15841;SDS011;8021;48.022;11.812;2024-03-08T01:21:46;0.80;;;0.80;;
15841;SDS011;8021;48.022;11.812;2024-03-08T01:24:15;0.70;;;0.70;;
15841;SDS011;8021;48.022;11.812;2024-03-08T01:26:43;0.80;;;0.80;;
15841;SDS011;8021;48.022;11.812;2024-03-08T01:29:11;1.00;;;1.00;;
15841;SDS011;8021;48.022;11.812;2024-03-08T01:31:39;0.80;;;0.80;;
15841;SDS011;8021;48.022;11.812;2024-03-08T01:34:06;0.80;;;0.80;;
15841;SDS011;8021;48.022;11.812;2024-03-08T01:36:34;0.80;;;0.80;;
15841;SDS011;8021;48.022;11.812;2024-03-08T01:39:03;0.80;;;0.80;;
15841;SDS011;8021;48.022;11.812;2024-03-08T01:41:36;1.00;;;1.00;;
15841;SDS011;8021;48.022;11.812;2024-03-08T01:44:04;0.90;;;0.90;;
15841;SDS011;8021;48.022;11.812;2024-03-08T01:46:33;0.90;;;0.90;;
15841;SDS011;8021;48.022;11.812;2024-03-08T01:49:01;0.70;;;0.70;;
15841;SDS011;8021;48.022;11.812;2024-03-08T01:51:29;0.80;;;0.80;;
15841;SDS011;8021;48.022;11.812;2024-03-08T01:53:58;0.83;;;0.83;;
15841;SDS011;8021;48.022;11.812;2024-03-08T01:56:28;0.87;;;0.87;;
15841;SDS011;8021;48.022;11.812;2024-03-08T01:59:01;0.77;;;0.77;;
15841;SDS011;8021;48.022;11.812;2024-03-08T02:01:29;0.80;;;0.80;;
15841;SDS011;8021;48.022;11.812;2024-03-08T02:03:57;0.70;;;0.70;;
15841;SDS011;8021;48.022;11.812;2024-03-08T02:06:24;0.90;;;0.90;;
15841;SDS011;8021;48.022;11.812;2024-03-08T02:08:52;0.70;;;0.70;;
15841;SDS011;8021;48.022;11.812;2024-03-08T02:11:20;0.80;;;0.80;;
15841;SDS011;8021;48.022;11.812;2024-03-08T02:13:48;0.80;;;0.80;;
15841;SDS011;8021;48.022;11.812;2024-03-08T02:16:21;0.70;;;0.70;;
15841;SDS011;8021;48.022;11.812;2024-03-08T02:18:49;0.80;;;0.80;;
15841;SDS011;8021;48.022;11.812;2024-03-08T02:21:18;0.80;;;0.80;;
15841;SDS011;8021;48.022;11.812;2024-03-08T02:23:46;0.70;;;0.70;;
15841;SDS011;8021;48.022;11.812;2024-03-08T02:26:14;0.80;;;0.80;;
15841;SDS011;8021;48.022;11.812;2024-03-08T02:28:42;0.60;;;0.60;;
15841;SDS011;8021;48.022;11.812;2024-03-08T02:31:11;0.87;;;0.87;;
15841;SDS011;8021;48.022;11.812;2024-03-08T02:33:39;0.80;;;0.80;;
15841;SDS011;8021;48.022;11.812;2024-03-08T02:36:07;0.70;;;0.70;;
15841;SDS011;8021;48.022;11.812;2024-03-08T02:38:36;0.87;;;0.87;;
15841;SDS011;8021;48.022;11.812;2024-03-08T02:41:04;0.70;;;0.70;;
15841;SDS011;8021;48.022;11.812;2024-03-08T02:43:32;0.80;;;0.80;;
15841;SDS011;8021;48.022;11.812;2024-03-08T02:46:00;0.70;;;0.70;;
15841;SDS011;8021;48.022;11.812;2024-03-08T02:48:28;0.83;;;0.83;;
15841;SDS011;8021;48.022;11.812;2024-03-08T02:50:55;0.70;;;0.70;;
15841;SDS011;8021;48.022;11.812;2024-03-08T02:53:23;0.80;;;0.80;;
15841;SDS011;8021;48.022;11.812;2024-03-08T02:55:53;0.73;;;0.73;;
15841;SDS011;8021;48.022;11.812;2024-03-08T02:58:21;0.77;;;0.77;;
15841;SDS011;8021;48.022;11.812;2024-03-08T03:00:49;0.60;;;0.60;;
15841;SDS011;8021;48.022;11.812;2024-03-08T03:03:17;0.80;;;0.80;;
15841;SDS011;8021;48.022;11.812;2024-03-08T03:05:45;0.80;;;0.80;;
15841;SDS011;8021;48.022;11.812;2024-03-08T03:08:15;0.73;;;0.73;;
15841;SDS011;8021;48.022;11.812;2024-03-08T03:10:44;0.70;;;0.70;;
15841;SDS011;8021;48.022;11.812;2024-03-08T03:13:14;0.80;;;0.80;;
15841;SDS011;8021;48.022;11.812;2024-03-08T03:15:41;1.00;;;1.00;;
15841;SDS011;8021;48.022;11.812;2024-03-08T03:18:09;0.80;;;0.80;;
15841;SDS011;8021;48.022;11.812;2024-03-08T03:20:38;0.80;;;0.80;;
15841;SDS011;8021;48.022;11.812;2024-03-08T03:23:09;0.90;;;0.90;;
15841;SDS011;8021;48.022;11.812;2024-03-08T03:25:40;0.80;;;0.80;;
15841;SDS011;8021;48.022;11.812;2024-03-08T03:28:07;0.70;;;0.70;;
15841;SDS011;8021;48.022;11.812;2024-03-08T03:30:38;0.83;;;0.83;;
15841;SDS011;8021;48.022;11.812;2024-03-08T03:33:06;0.90;;;0.90;;
15841;SDS011;8021;48.022;11.812;2024-03-08T03:35:34;1.13;;;1.13;;
15841;SDS011;8021;48.022;11.812;2024-03-08T03:38:04;1.00;;;1.00;;
15841;SDS011;8021;48.022;11.812;2024-03-08T03:40:35;0.90;;;0.90;;
15841;SDS011;8021;48.022;11.812;2024-03-08T03:43:03;0.90;;;0.90;;
15841;SDS011;8021;48.022;11.812;2024-03-08T03:45:31;0.80;;;0.80;;
15841;SDS011;8021;48.022;11.812;2024-03-08T03:48:03;0.97;;;0.97;;
15841;SDS011;8021;48.022;11.812;2024-03-08T03:50:33;0.83;;;0.83;;
15841;SDS011;8021;48.022;11.812;2024-03-08T03:53:03;0.80;;;0.80;;
15841;SDS011;8021;48.022;11.812;2024-03-08T03:55:31;0.80;;;0.80;;
15841;SDS011;8021;48.022;11.812;2024-03-08T03:57:59;0.90;;;0.90;;
15841;SDS011;8021;48.022;11.812;2024-03-08T04:00:27;0.67;;;0.67;;
15841;SDS011;8021;48.022;11.812;2024-03-08T04:02:55;1.03;;;1.03;;
15841;SDS011;8021;48.022;11.812;2024-03-08T04:05:27;0.83;;;0.83;;
15841;SDS011;8021;48.022;11.812;2024-03-08T04:07:55;0.70;;;0.70;;
15841;SDS011;8021;48.022;11.812;2024-03-08T04:10:23;0.87;;;0.87;;
15841;SDS011;8021;48.022;11.812;2024-03-08T04:12:51;0.90;;;0.90;;
15841;SDS011;8021;48.022;11.812;2024-03-08T04:15:19;0.90;;;0.90;;
15841;SDS011;8021;48.022;11.812;2024-03-08T04:17:47;0.90;;;0.90;;
15841;SDS011;8021;48.022;11.812;2024-03-08T04:20:14;0.73;;;0.73;;
15841;SDS011;8021;48.022;11.812;2024-03-08T04:22:45;0.70;;;0.70;;
15841;SDS011;8021;48.022;11.812;2024-03-08T04:25:14;0.80;;;0.80;;
15841;SDS011;8021;48.022;11.812;2024-03-08T04:27:42;0.60;;;0.60;;
15841;SDS011;8021;48.022;11.812;2024-03-08T04:30:11;0.80;;;0.80;;
15841;SDS011;8021;48.022;11.812;2024-03-08T04:32:39;0.73;;;0.73;;
15841;SDS011;8021;48.022;11.812;2024-03-08T04:35:08;0.80;;;0.80;;
15841;SDS011;8021;48.022;11.812;2024-03-08T04:37:35;0.90;;;0.90;;
15841;SDS011;8021;48.022;11.812;2024-03-08T04:40:05;0.83;;;0.83;;
15841;SDS011;8021;48.022;11.812;2024-03-08T04:42:33;0.83;;;0.83;;
15841;SDS011;8021;48.022;11.812;2024-03-08T04:45:01;0.70;;;0.70;;
15841;SDS011;8021;48.022;11.812;2024-03-08T04:47:30;0.80;;;0.80;;
15841;SDS011;8021;48.022;11.812;2024-03-08T04:49:58;0.80;;;0.80;;
15841;SDS011;8021;48.022;11.812;2024-03-08T04:52:26;0.80;;;0.80;;
15841;SDS011;8021;48.022;11.812;2024-03-08T04:54:54;0.80;;;0.80;;
15841;SDS011;8021;48.022;11.812;2024-03-08T04:57:23;0.90;;;0.90;;
15841;SDS011;8021;48.022;11.812;2024-03-08T04:59:52;0.90;;;0.90;;
15841;SDS011;8021;48.022;11.812;2024-03-08T05:02:20;0.70;;;0.70;;
15841;SDS011;8021;48.022;11.812;2024-03-08T05:04:49;0.77;;;0.77;;
15841;SDS011;8021;48.022;11.812;2024-03-08T05:07:17;0.80;;;0.80;;
15841;SDS011;8021;48.022;11.812;2024-03-08T05:09:45;0.80;;;0.80;;
15841;SDS011;8021;48.022;11.812;2024-03-08T05:12:17;0.80;;;0.80;;
15841;SDS011;8021;48.022;11.812;2024-03-08T05:14:47;0.77;;;0.77;;
15841;SDS011;8021;48.022;11.812;2024-03-08T05:17:16;0.80;;;0.80;;
15841;SDS011;8021;48.022;11.812;2024-03-08T05:19:44;1.00;;;1.00;;
15841;SDS011;8021;48.022;11.812;2024-03-08T05:22:12;0.80;;;0.80;;
15841;SDS011;8021;48.022;11.812;2024-03-08T05:24:39;0.80;;;0.80;;
15841;SDS011;8021;48.022;11.812;2024-03-08T05:27:07;0.70;;;0.70;;
15841;SDS011;8021;48.022;11.812;2024-03-08T05:29:35;0.70;;;0.70;;
15841;SDS011;8021;48.022;11.812;2024-03-08T05:32:04;0.90;;;0.90;;
15841;SDS011;8021;48.022;11.812;2024-03-08T05:34:33;0.80;;;0.80;;
15841;SDS011;8021;48.022;11.812;2024-03-08T05:37:04;0.80;;;0.80;;
15841;SDS011;8021;48.022;11.812;2024-03-08T05:39:34;0.80;;;0.80;;
15841;SDS011;8021;48.022;11.812;2024-03-08T05:42:01;0.70;;;0.70;;
15841;SDS011;8021;48.022;11.812;2024-03-08T05:44:29;0.77;;;0.77;;
15841;SDS011;8021;48.022;11.812;2024-03-08T05:46:57;0.70;;;0.70;;
15841;SDS011;8021;48.022;11.812;2024-03-08T05:49:26;0.83;;;0.83;;
15841;SDS011;8021;48.022;11.812;2024-03-08T05:51:54;0.80;;;0.80;;
15841;SDS011;8021;48.022;11.812;2024-03-08T05:54:22;0.90;;;0.90;;
15841;SDS011;8021;48.022;11.812;2024-03-08T05:56:51;0.80;;;0.80;;
15841;SDS011;8021;48.022;11.812;2024-03-08T05:59:21;0.80;;;0.80;;
15841;SDS011;8021;48.022;11.812;2024-03-08T06:01:50;0.70;;;0.70;;
15841;SDS011;8021;48.022;11.812;2024-03-08T06:04:18;0.90;;;0.90;;
15841;SDS011;8021;48.022;11.812;2024-03-08T06:06:47;0.87;;;0.87;;
15841;SDS011;8021;48.022;11.812;2024-03-08T06:09:18;0.97;;;0.97;;
15841;SDS011;8021;48.022;11.812;2024-03-08T06:11:50;0.83;;;0.83;;
15841;SDS011;8021;48.022;11.812;2024-03-08T06:14:18;0.90;;;0.90;;
15841;SDS011;8021;48.022;11.812;2024-03-08T06:16:46;0.80;;;0.80;;
15841;SDS011;8021;48.022;11.812;2024-03-08T06:19:16;0.90;;;0.90;;
15841;SDS011;8021;48.022;11.812;2024-03-08T06:21:44;0.80;;;0.80;;
15841;SDS011;8021;48.022;11.812;2024-03-08T06:24:13;0.90;;;0.90;;
15841;SDS011;8021;48.022;11.812;2024-03-08T06:26:42;0.80;;;0.80;;
15841;SDS011;8021;48.022;11.812;2024-03-08T06:29:09;0.80;;;0.80;;
15841;SDS011;8021;48.022;11.812;2024-03-08T06:31:37;0.90;;;0.90;;
15841;SDS011;8021;48.022;11.812;2024-03-08T06:34:06;0.80;;;0.80;;
15841;SDS011;8021;48.022;11.812;2024-03-08T06:36:35;0.80;;;0.80;;
15841;SDS011;8021;48.022;11.812;2024-03-08T06:39:04;0.83;;;0.83;;
15841;SDS011;8021;48.022;11.812;2024-03-08T06:41:37;0.90;;;0.90;;
15841;SDS011;8021;48.022;11.812;2024-03-08T06:44:05;0.80;;;0.80;;
15841;SDS011;8021;48.022;11.812;2024-03-08T06:46:34;0.60;;;0.60;;
15841;SDS011;8021;48.022;11.812;2024-03-08T06:49:02;0.67;;;0.67;;
15841;SDS011;8021;48.022;11.812;2024-03-08T06:51:30;0.90;;;0.90;;
15841;SDS011;8021;48.022;11.812;2024-03-08T06:53:58;0.73;;;0.73;;
15841;SDS011;8021;48.022;11.812;2024-03-08T06:56:26;0.77;;;0.77;;
15841;SDS011;8021;48.022;11.812;2024-03-08T06:58:55;0.80;;;0.80;;
15841;SDS011;8021;48.022;11.812;2024-03-08T07:01:23;0.70;;;0.70;;
15841;SDS011;8021;48.022;11.812;2024-03-08T07:03:51;0.70;;;0.70;;
15841;SDS011;8021;48.022;11.812;2024-03-08T07:06:19;0.80;;;0.80;;
15841;SDS011;8021;48.022;11.812;2024-03-08T07:08:47;0.50;;;0.50;;
15841;SDS011;8021;48.022;11.812;2024-03-08T07:11:15;0.57;;;0.57;;
15841;SDS011;8021;48.022;11.812;2024-03-08T07:13:45;0.70;;;0.70;;
15841;SDS011;8021;48.022;11.812;2024-03-08T07:16:14;0.70;;;0.70;;
15841;SDS011;8021;48.022;11.812;2024-03-08T07:18:42;0.57;;;0.57;;
15841;SDS011;8021;48.022;11.812;2024-03-08T07:21:12;0.55;;;0.55;;
15841;SDS011;8021;48.022;11.812;2024-03-08T07:23:40;0.40;;;0.40;;
15841;SDS011;8021;48.022;11.812;2024-03-08T07:26:24;0.60;;;0.60;;
15841;SDS011;8021;48.022;11.812;2024-03-08T07:28:52;0.38;;;0.38;;
15841;SDS011;8021;48.022;11.812;2024-03-08T07:31:22;0.40;;;0.40;;
15841;SDS011;8021;48.022;11.812;2024-03-08T07:33:57;0.40;;;0.40;;
15841;SDS011;8021;48.022;11.812;2024-03-08T07:36:25;0.40;;;0.40;;
15841;SDS011;8021;48.022;11.812;2024-03-08T07:38:53;0.30;;;0.30;;
15841;SDS011;8021;48.022;11.812;2024-03-08T07:41:20;0.40;;;0.40;;
15841;SDS011;8021;48.022;11.812;2024-03-08T07:43:49;0.40;;;0.40;;
15841;SDS011;8021;48.022;11.812;2024-03-08T07:46:17;0.30;;;0.30;;
15841;SDS011;8021;48.022;11.812;2024-03-08T07:48:46;0.30;;;0.30;;
15841;SDS011;8021;48.022;11.812;2024-03-08T07:51:15;0.40;;;0.40;;
15841;SDS011;8021;48.022;11.812;2024-03-08T07:53:44;0.38;;;0.38;;
15841;SDS011;8021;48.022;11.812;2024-03-08T07:56:12;0.40;;;0.40;;
15841;SDS011;8021;48.022;11.812;2024-03-08T07:58:40;0.40;;;0.40;;
15841;SDS011;8021;48.022;11.812;2024-03-08T08:01:08;0.30;;;0.30;;
15841;SDS011;8021;48.022;11.812;2024-03-08T08:03:36;0.40;;;0.40;;
15841;SDS011;8021;48.022;11.812;2024-03-08T08:06:05;0.30;;;0.30;;
15841;SDS011;8021;48.022;11.812;2024-03-08T08:08:33;0.30;;;0.30;;
15841;SDS011;8021;48.022;11.812;2024-03-08T08:11:01;0.40;;;0.40;;
15841;SDS011;8021;48.022;11.812;2024-03-08T08:13:29;0.30;;;0.30;;
15841;SDS011;8021;48.022;11.812;2024-03-08T08:15:58;0.30;;;0.30;;
15841;SDS011;8021;48.022;11.812;2024-03-08T08:18:26;0.30;;;0.30;;
15841;SDS011;8021;48.022;11.812;2024-03-08T08:20:55;0.30;;;0.30;;
15841;SDS011;8021;48.022;11.812;2024-03-08T08:23:24;0.30;;;0.30;;
15841;SDS011;8021;48.022;11.812;2024-03-08T08:25:52;0.30;;;0.30;;
15841;SDS011;8021;48.022;11.812;2024-03-08T08:28:20;0.30;;;0.30;;
15841;SDS011;8021;48.022;11.812;2024-03-08T08:30:48;0.30;;;0.30;;
15841;SDS011;8021;48.022;11.812;2024-03-08T08:33:16;0.35;;;0.35;;
15841;SDS011;8021;48.022;11.812;2024-03-08T08:35:44;0.40;;;0.40;;
15841;SDS011;8021;48.022;11.812;2024-03-08T08:38:14;0.30;;;0.30;;
15841;SDS011;8021;48.022;11.812;2024-03-08T08:40:43;0.40;;;0.40;;
15841;SDS011;8021;48.022;11.812;2024-03-08T08:43:11;0.30;;;0.30;;
15841;SDS011;8021;48.022;11.812;2024-03-08T08:45:39;0.40;;;0.40;;
15841;SDS011;8021;48.022;11.812;2024-03-08T08:48:07;0.40;;;0.40;;
15841;SDS011;8021;48.022;11.812;2024-03-08T08:50:36;0.30;;;0.30;;
15841;SDS011;8021;48.022;11.812;2024-03-08T08:53:04;0.40;;;0.40;;
15841;SDS011;8021;48.022;11.812;2024-03-08T08:55:33;0.30;;;0.20;;
15841;SDS011;8021;48.022;11.812;2024-03-08T08:58:04;0.20;;;0.20;;
15841;SDS011;8021;48.022;11.812;2024-03-08T09:00:33;0.30;;;0.30;;
15841;SDS011;8021;48.022;11.812;2024-03-08T09:03:01;0.20;;;0.10;;
15841;SDS011;8021;48.022;11.812;2024-03-08T09:05:28;0.20;;;0.20;;
15841;SDS011;8021;48.022;11.812;2024-03-08T09:07:56;0.20;;;0.20;;
15841;SDS011;8021;48.022;11.812;2024-03-08T09:10:24;0.20;;;0.20;;
15841;SDS011;8021;48.022;11.812;2024-03-08T09:12:54;0.20;;;0.20;;
15841;SDS011;8021;48.022;11.812;2024-03-08T09:15:23;0.30;;;0.20;;
15841;SDS011;8021;48.022;11.812;2024-03-08T09:17:56;0.20;;;0.20;;
15841;SDS011;8021;48.022;11.812;2024-03-08T09:20:23;0.20;;;0.20;;
15841;SDS011;8021;48.022;11.812;2024-03-08T09:22:51;0.28;;;0.20;;
15841;SDS011;8021;48.022;11.812;2024-03-08T09:25:19;0.28;;;0.20;;
15841;SDS011;8021;48.022;11.812;2024-03-08T09:27:47;0.30;;;0.30;;
15841;SDS011;8021;48.022;11.812;2024-03-08T09:30:15;0.30;;;0.30;;
15841;SDS011;8021;48.022;11.812;2024-03-08T09:32:44;0.40;;;0.40;;
15841;SDS011;8021;48.022;11.812;2024-03-08T09:35:12;0.40;;;0.40;;
15841;SDS011;8021;48.022;11.812;2024-03-08T09:37:41;0.40;;;0.40;;
15841;SDS011;8021;48.022;11.812;2024-03-08T09:40:09;0.32;;;0.32;;
15841;SDS011;8021;48.022;11.812;2024-03-08T09:42:41;0.40;;;0.40;;
15841;SDS011;8021;48.022;11.812;2024-03-08T09:45:09;0.40;;;0.40;;
15841;SDS011;8021;48.022;11.812;2024-03-08T09:47:38;0.40;;;0.40;;
15841;SDS011;8021;48.022;11.812;2024-03-08T09:50:08;0.40;;;0.40;;
15841;SDS011;8021;48.022;11.812;2024-03-08T09:52:38;0.50;;;0.50;;
15841;SDS011;8021;48.022;11.812;2024-03-08T09:55:07;0.40;;;0.40;;
15841;SDS011;8021;48.022;11.812;2024-03-08T09:57:34;0.52;;;0.52;;
15841;SDS011;8021;48.022;11.812;2024-03-08T10:00:02;0.50;;;0.50;;
15841;SDS011;8021;48.022;11.812;2024-03-08T10:02:36;0.40;;;0.40;;
15841;SDS011;8021;48.022;11.812;2024-03-08T10:05:04;0.40;;;0.40;;
15841;SDS011;8021;48.022;11.812;2024-03-08T10:07:33;0.40;;;0.40;;
15841;SDS011;8021;48.022;11.812;2024-03-08T10:10:02;0.40;;;0.40;;
15841;SDS011;8021;48.022;11.812;2024-03-08T10:12:29;0.40;;;0.40;;
15841;SDS011;8021;48.022;11.812;2024-03-08T10:14:58;0.50;;;0.50;;
15841;SDS011;8021;48.022;11.812;2024-03-08T10:17:25;0.40;;;0.40;;
15841;SDS011;8021;48.022;11.812;2024-03-08T10:19:53;0.40;;;0.40;;
15841;SDS011;8021;48.022;11.812;2024-03-08T10:22:21;0.40;;;0.40;;
15841;SDS011;8021;48.022;11.812;2024-03-08T10:24:50;0.40;;;0.40;;
15841;SDS011;8021;48.022;11.812;2024-03-08T10:27:18;0.50;;;0.50;;
15841;SDS011;8021;48.022;11.812;2024-03-08T10:29:47;0.35;;;0.35;;
15841;SDS011;8021;48.022;11.812;2024-03-08T10:32:15;0.30;;;0.30;;
15841;SDS011;8021;48.022;11.812;2024-03-08T10:34:42;0.40;;;0.40;;
15841;SDS011;8021;48.022;11.812;2024-03-08T10:37:12;0.40;;;0.40;;
15841;SDS011;8021;48.022;11.812;2024-03-08T10:39:45;0.40;;;0.40;;
15841;SDS011;8021;48.022;11.812;2024-03-08T10:42:17;0.43;;;0.43;;
15841;SDS011;8021;48.022;11.812;2024-03-08T10:44:49;0.40;;;0.40;;
15841;SDS011;8021;48.022;11.812;2024-03-08T10:47:24;0.50;;;0.50;;
15841;SDS011;8021;48.022;11.812;2024-03-08T10:49:54;0.40;;;0.40;;
15841;SDS011;8021;48.022;11.812;2024-03-08T10:52:22;0.50;;;0.50;;
15841;SDS011;8021;48.022;11.812;2024-03-08T10:54:51;0.40;;;0.40;;
15841;SDS011;8021;48.022;11.812;2024-03-08T10:57:21;0.43;;;0.43;;
15841;SDS011;8021;48.022;11.812;2024-03-08T10:59:50;0.40;;;0.40;;
15841;SDS011;8021;48.022;11.812;2024-03-08T11:02:22;0.47;;;0.47;;
15841;SDS011;8021;48.022;11.812;2024-03-08T11:04:50;0.40;;;0.40;;
15841;SDS011;8021;48.022;11.812;2024-03-08T11:07:19;0.40;;;0.40;;
15841;SDS011;8021;48.022;11.812;2024-03-08T11:09:47;0.30;;;0.30;;
15841;SDS011;8021;48.022;11.812;2024-03-08T11:12:19;0.45;;;0.45;;
15841;SDS011;8021;48.022;11.812;2024-03-08T11:14:48;0.40;;;0.40;;
15841;SDS011;8021;48.022;11.812;2024-03-08T11:17:20;0.30;;;0.30;;
15841;SDS011;8021;48.022;11.812;2024-03-08T11:19:49;0.40;;;0.40;;
15841;SDS011;8021;48.022;11.812;2024-03-08T11:22:22;0.40;;;0.40;;
15841;SDS011;8021;48.022;11.812;2024-03-08T11:24:50;0.40;;;0.40;;
15841;SDS011;8021;48.022;11.812;2024-03-08T11:27:17;0.40;;;0.40;;
15841;SDS011;8021;48.022;11.812;2024-03-08T11:30:00;0.50;;;0.50;;
15841;SDS011;8021;48.022;11.812;2024-03-08T11:32:35;0.43;;;0.43;;
15841;SDS011;8021;48.022;11.812;2024-03-08T11:35:05;0.32;;;0.32;;
15841;SDS011;8021;48.022;11.812;2024-03-08T11:37:33;0.40;;;0.40;;
15841;SDS011;8021;48.022;11.812;2024-03-08T11:40:02;0.40;;;0.40;;
15841;SDS011;8021;48.022;11.812;2024-03-08T11:42:31;0.40;;;0.40;;
15841;SDS011;8021;48.022;11.812;2024-03-08T11:45:00;0.40;;;0.40;;
15841;SDS011;8021;48.022;11.812;2024-03-08T11:47:30;0.30;;;0.30;;
15841;SDS011;8021;48.022;11.812;2024-03-08T11:49:58;0.47;;;0.47;;
15841;SDS011;8021;48.022;11.812;2024-03-08T11:52:26;0.40;;;0.40;;
15841;SDS011;8021;48.022;11.812;2024-03-08T11:54:54;0.40;;;0.40;;
15841;SDS011;8021;48.022;11.812;2024-03-08T11:57:25;0.40;;;0.40;;
15841;SDS011;8021;48.022;11.812;2024-03-08T11:59:55;0.50;;;0.50;;
15841;SDS011;8021;48.022;11.812;2024-03-08T12:02:26;0.50;;;0.50;;
15841;SDS011;8021;48.022;11.812;2024-03-08T12:04:56;0.30;;;0.30;;
15841;SDS011;8021;48.022;11.812;2024-03-08T12:07:26;0.40;;;0.40;;
15841;SDS011;8021;48.022;11.812;2024-03-08T12:12:43;0.50;;;0.50;;
15841;SDS011;8021;48.022;11.812;2024-03-08T12:15:11;0.40;;;0.40;;
15841;SDS011;8021;48.022;11.812;2024-03-08T12:17:41;0.45;;;0.45;;
15841;SDS011;8021;48.022;11.812;2024-03-08T12:20:13;0.40;;;0.40;;
15841;SDS011;8021;48.022;11.812;2024-03-08T12:22:42;0.40;;;0.40;;
15841;SDS011;8021;48.022;11.812;2024-03-08T12:25:10;0.40;;;0.40;;
15841;SDS011;8021;48.022;11.812;2024-03-08T12:27:39;0.30;;;0.30;;
15841;SDS011;8021;48.022;11.812;2024-03-08T12:30:20;0.40;;;0.40;;
15841;SDS011;8021;48.022;11.812;2024-03-08T12:32:54;0.43;;;0.43;;
15841;SDS011;8021;48.022;11.812;2024-03-08T12:35:23;0.40;;;0.40;;
15841;SDS011;8021;48.022;11.812;2024-03-08T12:37:52;0.40;;;0.40;;
15841;SDS011;8021;48.022;11.812;2024-03-08T12:40:25;0.30;;;0.30;;
15841;SDS011;8021;48.022;11.812;2024-03-08T12:42:54;0.40;;;0.40;;
15841;SDS011;8021;48.022;11.812;2024-03-08T12:45:22;0.50;;;0.50;;
15841;SDS011;8021;48.022;11.812;2024-03-08T12:47:50;0.40;;;0.40;;
15841;SDS011;8021;48.022;11.812;2024-03-08T12:50:21;0.40;;;0.40;;
15841;SDS011;8021;48.022;11.812;2024-03-08T12:52:48;0.40;;;0.40;;
15841;SDS011;8021;48.022;11.812;2024-03-08T12:55:19;0.50;;;0.50;;
15841;SDS011;8021;48.022;11.812;2024-03-08T12:57:47;0.40;;;0.40;;
15841;SDS011;8021;48.022;11.812;2024-03-08T13:00:15;0.32;;;0.32;;
15841;SDS011;8021;48.022;11.812;2024-03-08T13:02:46;0.40;;;0.40;;
15841;SDS011;8021;48.022;11.812;2024-03-08T13:05:14;0.40;;;0.40;;
15841;SDS011;8021;48.022;11.812;2024-03-08T13:07:43;0.40;;;0.40;;
15841;SDS011;8021;48.022;11.812;2024-03-08T13:10:14;0.47;;;0.47;;
15841;SDS011;8021;48.022;11.812;2024-03-08T13:12:42;0.40;;;0.40;;
15841;SDS011;8021;48.022;11.812;2024-03-08T13:15:09;0.40;;;0.40;;
15841;SDS011;8021;48.022;11.812;2024-03-08T13:17:41;0.40;;;0.40;;
15841;SDS011;8021;48.022;11.812;2024-03-08T13:20:11;0.45;;;0.45;;
15841;SDS011;8021;48.022;11.812;2024-03-08T13:22:57;0.40;;;0.40;;
15841;SDS011;8021;48.022;11.812;2024-03-08T13:25:28;0.40;;;0.40;;
15841;SDS011;8021;48.022;11.812;2024-03-08T13:27:55;0.40;;;0.40;;
15841;SDS011;8021;48.022;11.812;2024-03-08T13:30:25;0.43;;;0.43;;
15841;SDS011;8021;48.022;11.812;2024-03-08T13:32:53;0.50;;;0.50;;
15841;SDS011;8021;48.022;11.812;2024-03-08T13:35:21;0.47;;;0.47;;
15841;SDS011;8021;48.022;11.812;2024-03-08T13:37:53;0.30;;;0.30;;
15841;SDS011;8021;48.022;11.812;2024-03-08T13:40:23;0.40;;;0.40;;
15841;SDS011;8021;48.022;11.812;2024-03-08T13:42:50;0.50;;;0.50;;
15841;SDS011;8021;48.022;11.812;2024-03-08T13:45:18;0.45;;;0.45;;
15841;SDS011;8021;48.022;11.812;2024-03-08T13:47:49;0.40;;;0.40;;
15841;SDS011;8021;48.022;11.812;2024-03-08T13:50:18;0.40;;;0.40;;
15841;SDS011;8021;48.022;11.812;2024-03-08T13:52:47;0.30;;;0.30;;
15841;SDS011;8021;48.022;11.812;2024-03-08T13:55:20;0.40;;;0.40;;
15841;SDS011;8021;48.022;11.812;2024-03-08T13:57:49;0.30;;;0.30;;
15841;SDS011;8021;48.022;11.812;2024-03-08T14:00:18;0.40;;;0.40;;
15841;SDS011;8021;48.022;11.812;2024-03-08T14:02:49;0.40;;;0.40;;
15841;SDS011;8021;48.022;11.812;2024-03-08T14:05:16;0.30;;;0.30;;
15841;SDS011;8021;48.022;11.812;2024-03-08T14:07:46;0.30;;;0.30;;
15841;SDS011;8021;48.022;11.812;2024-03-08T14:10:16;0.50;;;0.50;;
15841;SDS011;8021;48.022;11.812;2024-03-08T14:12:47;0.40;;;0.40;;
15841;SDS011;8021;48.022;11.812;2024-03-08T14:15:16;0.50;;;0.50;;
15841;SDS011;8021;48.022;11.812;2024-03-08T14:17:44;0.50;;;0.50;;
15841;SDS011;8021;48.022;11.812;2024-03-08T14:20:13;0.40;;;0.40;;
15841;SDS011;8021;48.022;11.812;2024-03-08T14:22:43;0.30;;;0.30;;
15841;SDS011;8021;48.022;11.812;2024-03-08T14:25:11;0.40;;;0.40;;
15841;SDS011;8021;48.022;11.812;2024-03-08T14:27:44;0.40;;;0.40;;
15841;SDS011;8021;48.022;11.812;2024-03-08T14:30:12;0.40;;;0.40;;
15841;SDS011;8021;48.022;11.812;2024-03-08T14:32:45;0.50;;;0.50;;
15841;SDS011;8021;48.022;11.812;2024-03-08T14:35:14;0.30;;;0.30;;
15841;SDS011;8021;48.022;11.812;2024-03-08T14:37:41;0.40;;;0.40;;
15841;SDS011;8021;48.022;11.812;2024-03-08T14:40:10;0.30;;;0.30;;
15841;SDS011;8021;48.022;11.812;2024-03-08T14:42:41;0.40;;;0.40;;
15841;SDS011;8021;48.022;11.812;2024-03-08T14:45:09;0.38;;;0.38;;
15841;SDS011;8021;48.022;11.812;2024-03-08T14:47:37;0.40;;;0.40;;
15841;SDS011;8021;48.022;11.812;2024-03-08T14:50:06;0.45;;;0.45;;
15841;SDS011;8021;48.022;11.812;2024-03-08T14:52:34;0.30;;;0.30;;
15841;SDS011;8021;48.022;11.812;2024-03-08T14:55:02;0.40;;;0.40;;
15841;SDS011;8021;48.022;11.812;2024-03-08T14:57:32;0.40;;;0.40;;
15841;SDS011;8021;48.022;11.812;2024-03-08T15:00:00;0.40;;;0.40;;